sensor_id;sensor_type;location;lat;lon;timestamp;P1;durP1;ratioP1;P2;durP2;ratioP2
11006;SDS011;8186;57.652;11.968;2023-07-02T04:00:08;6.00;;;1.93;;
11006;SDS011;8186;57.652;11.968;2023-07-02T04:02:55;6.63;;;1.87;;
11006;SDS011;8186;57.652;11.968;2023-07-02T04:05:40;7.17;;;2.30;;
11006;SDS011;8186;57.652;11.968;2023-07-02T04:08:26;10.87;;;2.20;;
11006;SDS011;8186;57.652;11.968;2023-07-02T04:11:14;6.80;;;2.30;;
11006;SDS011;8186;57.652;11.968;2023-07-02T04:13:59;8.20;;;2.63;;
11006;SDS011;8186;57.652;11.968;2023-07-02T04:16:46;6.50;;;2.13;;
11006;SDS011;8186;57.652;11.968;2023-07-02T04:19:31;11.33;;;2.27;;
11006;SDS011;8186;57.652;11.968;2023-07-02T04:27:27;8.10;;;2.10;;
11006;SDS011;8186;57.652;11.968;2023-07-02T04:30:13;10.10;;;2.43;;
11006;SDS011;8186;57.652;11.968;2023-07-02T04:43:21;9.40;;;2.57;;
11006;SDS011;8186;57.652;11.968;2023-07-02T06:10:53;14.43;;;4.10;;
11006;SDS011;8186;57.652;11.968;2023-07-02T06:13:38;15.63;;;4.27;;
11006;SDS011;8186;57.652;11.968;2023-07-02T06:16:25;11.53;;;4.23;;
11006;SDS011;8186;57.652;11.968;2023-07-02T06:19:10;14.60;;;4.07;;
11006;SDS011;8186;57.652;11.968;2023-07-02T06:24:31;13.40;;;3.90;;
11006;SDS011;8186;57.652;11.968;2023-07-02T06:27:10;12.10;;;3.63;;
11006;SDS011;8186;57.652;11.968;2023-07-02T06:29:55;14.37;;;3.80;;
11006;SDS011;8186;57.652;11.968;2023-07-02T06:38:20;14.27;;;3.77;;
11006;SDS011;8186;57.652;11.968;2023-07-02T06:46:46;13.70;;;3.10;;
11006;SDS011;8186;57.652;11.968;2023-07-02T08:25:06;7.10;;;2.97;;
11006;SDS011;8186;57.652;11.968;2023-07-02T08:27:52;9.63;;;3.30;;
11006;SDS011;8186;57.652;11.968;2023-07-02T08:30:37;11.07;;;3.03;;
11006;SDS011;8186;57.652;11.968;2023-07-02T08:33:23;6.63;;;3.13;;
11006;SDS011;8186;57.652;11.968;2023-07-02T08:36:08;7.77;;;2.87;;
11006;SDS011;8186;57.652;11.968;2023-07-02T08:41:47;11.60;;;3.38;;
11006;SDS011;8186;57.652;11.968;2023-07-02T08:44:33;8.40;;;3.33;;
11006;SDS011;8186;57.652;11.968;2023-07-02T08:55:05;8.63;;;2.90;;
11006;SDS011;8186;57.652;11.968;2023-07-02T09:49:48;5.07;;;2.20;;
11006;SDS011;8186;57.652;11.968;2023-07-02T09:52:34;3.40;;;2.07;;
11006;SDS011;8186;57.652;11.968;2023-07-02T09:55:21;6.37;;;1.93;;
11006;SDS011;8186;57.652;11.968;2023-07-02T09:58:07;5.53;;;2.10;;
11006;SDS011;8186;57.652;11.968;2023-07-02T10:00:52;5.60;;;2.07;;
11006;SDS011;8186;57.652;11.968;2023-07-02T10:03:37;4.87;;;2.10;;
11006;SDS011;8186;57.652;11.968;2023-07-02T10:06:24;10.13;;;2.15;;
11006;SDS011;8186;57.652;11.968;2023-07-02T10:15:26;5.10;;;1.92;;
11006;SDS011;8186;57.652;11.968;2023-07-02T10:21:15;4.03;;;1.67;;
11006;SDS011;8186;57.652;11.968;2023-07-02T10:24:10;4.47;;;2.17;;
11006;SDS011;8186;57.652;11.968;2023-07-02T10:30:34;5.63;;;1.92;;
11006;SDS011;8186;57.652;11.968;2023-07-02T10:33:12;6.90;;;2.10;;
11006;SDS011;8186;57.652;11.968;2023-07-02T10:44:51;6.38;;;2.10;;
11006;SDS011;8186;57.652;11.968;2023-07-02T10:57:10;6.13;;;2.67;;
11006;SDS011;8186;57.652;11.968;2023-07-02T11:42:19;6.55;;;2.47;;
11006;SDS011;8186;57.652;11.968;2023-07-02T11:48:00;9.38;;;2.75;;
11006;SDS011;8186;57.652;11.968;2023-07-02T11:56:44;9.10;;;3.17;;
11006;SDS011;8186;57.652;11.968;2023-07-02T12:15:36;2.75;;;1.48;;
11006;SDS011;8186;57.652;11.968;2023-07-02T12:18:21;4.80;;;1.52;;
11006;SDS011;8186;57.652;11.968;2023-07-02T12:21:07;4.72;;;2.05;;
11006;SDS011;8186;57.652;11.968;2023-07-02T12:23:52;8.70;;;2.38;;
11006;SDS011;8186;57.652;11.968;2023-07-02T12:26:39;6.80;;;2.20;;
11006;SDS011;8186;57.652;11.968;2023-07-02T12:29:24;8.07;;;2.67;;
11006;SDS011;8186;57.652;11.968;2023-07-02T12:32:11;6.57;;;3.03;;
11006;SDS011;8186;57.652;11.968;2023-07-02T12:34:56;9.18;;;3.30;;
11006;SDS011;8186;57.652;11.968;2023-07-02T12:37:42;7.95;;;3.42;;
11006;SDS011;8186;57.652;11.968;2023-07-02T12:40:29;7.28;;;3.10;;
11006;SDS011;8186;57.652;11.968;2023-07-02T12:43:15;9.25;;;3.40;;
11006;SDS011;8186;57.652;11.968;2023-07-02T12:46:00;9.52;;;3.70;;
11006;SDS011;8186;57.652;11.968;2023-07-02T12:48:47;10.63;;;3.75;;
11006;SDS011;8186;57.652;11.968;2023-07-02T12:51:29;10.27;;;3.70;;
11006;SDS011;8186;57.652;11.968;2023-07-02T12:54:10;6.80;;;3.50;;
11006;SDS011;8186;57.652;11.968;2023-07-02T12:56:52;10.98;;;3.22;;
11006;SDS011;8186;57.652;11.968;2023-07-02T12:59:19;11.43;;;3.13;;
11006;SDS011;8186;57.652;11.968;2023-07-02T13:01:46;9.20;;;3.28;;
11006;SDS011;8186;57.652;11.968;2023-07-02T13:04:16;7.38;;;3.45;;
11006;SDS011;8186;57.652;11.968;2023-07-02T13:06:43;10.40;;;3.85;;
11006;SDS011;8186;57.652;11.968;2023-07-02T13:09:10;12.15;;;3.75;;
11006;SDS011;8186;57.652;11.968;2023-07-02T13:11:37;13.13;;;4.05;;
11006;SDS011;8186;57.652;11.968;2023-07-02T13:14:04;6.30;;;2.97;;
11006;SDS011;8186;57.652;11.968;2023-07-02T13:16:31;6.47;;;2.78;;
11006;SDS011;8186;57.652;11.968;2023-07-02T13:18:58;3.78;;;2.00;;
11006;SDS011;8186;57.652;11.968;2023-07-02T13:21:28;8.43;;;2.58;;
11006;SDS011;8186;57.652;11.968;2023-07-02T13:23:55;5.55;;;2.40;;
11006;SDS011;8186;57.652;11.968;2023-07-02T13:26:21;6.47;;;2.17;;
11006;SDS011;8186;57.652;11.968;2023-07-02T13:28:48;5.20;;;2.67;;
11006;SDS011;8186;57.652;11.968;2023-07-02T13:31:15;5.50;;;2.28;;
11006;SDS011;8186;57.652;11.968;2023-07-02T13:33:42;6.80;;;2.30;;
11006;SDS011;8186;57.652;11.968;2023-07-02T13:36:10;5.63;;;2.50;;
11006;SDS011;8186;57.652;11.968;2023-07-02T13:38:38;7.70;;;2.65;;
11006;SDS011;8186;57.652;11.968;2023-07-02T13:41:05;8.75;;;3.88;;
11006;SDS011;8186;57.652;11.968;2023-07-02T13:43:32;9.45;;;3.08;;
11006;SDS011;8186;57.652;11.968;2023-07-02T13:45:59;7.57;;;3.57;;
11006;SDS011;8186;57.652;11.968;2023-07-02T13:48:27;6.05;;;2.78;;
11006;SDS011;8186;57.652;11.968;2023-07-02T13:50:54;10.27;;;2.92;;
11006;SDS011;8186;57.652;11.968;2023-07-02T13:53:21;6.47;;;3.10;;
11006;SDS011;8186;57.652;11.968;2023-07-02T13:55:50;11.55;;;4.45;;
11006;SDS011;8186;57.652;11.968;2023-07-02T13:58:17;7.40;;;3.70;;
11006;SDS011;8186;57.652;11.968;2023-07-02T14:00:45;9.68;;;3.60;;
11006;SDS011;8186;57.652;11.968;2023-07-02T14:03:12;7.82;;;4.03;;
11006;SDS011;8186;57.652;11.968;2023-07-02T14:05:40;10.82;;;4.15;;
11006;SDS011;8186;57.652;11.968;2023-07-02T14:08:07;8.02;;;4.22;;
11006;SDS011;8186;57.652;11.968;2023-07-02T14:10:35;13.20;;;3.90;;
11006;SDS011;8186;57.652;11.968;2023-07-02T14:13:02;11.30;;;4.18;;
11006;SDS011;8186;57.652;11.968;2023-07-02T14:15:30;8.07;;;4.35;;
11006;SDS011;8186;57.652;11.968;2023-07-02T14:17:58;11.82;;;4.63;;
11006;SDS011;8186;57.652;11.968;2023-07-02T14:20:42;9.57;;;5.00;;
11006;SDS011;8186;57.652;11.968;2023-07-02T14:23:28;9.75;;;5.07;;
11006;SDS011;8186;57.652;11.968;2023-07-02T14:25:55;10.40;;;5.50;;
11006;SDS011;8186;57.652;11.968;2023-07-02T14:28:22;9.73;;;6.25;;
11006;SDS011;8186;57.652;11.968;2023-07-02T14:30:55;14.30;;;7.45;;
11006;SDS011;8186;57.652;11.968;2023-07-02T14:33:24;13.27;;;7.97;;
11006;SDS011;8186;57.652;11.968;2023-07-02T14:35:51;16.30;;;7.57;;
11006;SDS011;8186;57.652;11.968;2023-07-02T14:38:17;15.95;;;7.70;;
11006;SDS011;8186;57.652;11.968;2023-07-02T14:40:44;17.35;;;8.98;;
11006;SDS011;8186;57.652;11.968;2023-07-02T14:43:11;15.68;;;8.02;;
11006;SDS011;8186;57.652;11.968;2023-07-02T14:45:42;18.85;;;9.10;;
11006;SDS011;8186;57.652;11.968;2023-07-02T14:48:11;15.50;;;7.85;;
11006;SDS011;8186;57.652;11.968;2023-07-02T14:50:42;15.47;;;8.27;;
11006;SDS011;8186;57.652;11.968;2023-07-02T14:53:14;15.20;;;8.32;;
11006;SDS011;8186;57.652;11.968;2023-07-02T14:55:41;17.43;;;8.93;;
11006;SDS011;8186;57.652;11.968;2023-07-02T14:58:09;16.92;;;8.95;;
11006;SDS011;8186;57.652;11.968;2023-07-02T15:00:42;14.00;;;8.23;;
11006;SDS011;8186;57.652;11.968;2023-07-02T15:03:09;15.23;;;8.63;;
11006;SDS011;8186;57.652;11.968;2023-07-02T15:05:36;13.40;;;5.90;;
11006;SDS011;8186;57.652;11.968;2023-07-02T15:08:05;14.17;;;4.17;;
11006;SDS011;8186;57.652;11.968;2023-07-02T15:10:32;12.63;;;3.80;;
11006;SDS011;8186;57.652;11.968;2023-07-02T15:13:03;12.60;;;4.00;;
11006;SDS011;8186;57.652;11.968;2023-07-02T15:15:30;10.30;;;3.70;;
11006;SDS011;8186;57.652;11.968;2023-07-02T15:17:56;13.37;;;4.10;;
11006;SDS011;8186;57.652;11.968;2023-07-02T15:20:23;7.57;;;3.20;;
11006;SDS011;8186;57.652;11.968;2023-07-02T15:22:50;11.30;;;3.30;;
11006;SDS011;8186;57.652;11.968;2023-07-02T15:25:19;8.20;;;2.73;;
11006;SDS011;8186;57.652;11.968;2023-07-02T15:27:46;6.10;;;2.10;;
11006;SDS011;8186;57.652;11.968;2023-07-02T15:30:13;5.30;;;1.98;;
11006;SDS011;8186;57.652;11.968;2023-07-02T15:32:40;5.47;;;1.90;;
11006;SDS011;8186;57.652;11.968;2023-07-02T15:35:07;9.00;;;2.83;;
11006;SDS011;8186;57.652;11.968;2023-07-02T15:37:34;10.60;;;3.23;;
11006;SDS011;8186;57.652;11.968;2023-07-02T15:40:01;6.13;;;3.33;;
11006;SDS011;8186;57.652;11.968;2023-07-02T15:42:30;6.60;;;3.33;;
11006;SDS011;8186;57.652;11.968;2023-07-02T15:44:57;7.43;;;3.60;;
11006;SDS011;8186;57.652;11.968;2023-07-02T15:47:24;9.10;;;3.17;;
11006;SDS011;8186;57.652;11.968;2023-07-02T15:49:51;10.07;;;3.73;;
11006;SDS011;8186;57.652;11.968;2023-07-02T15:52:18;7.73;;;3.30;;
11006;SDS011;8186;57.652;11.968;2023-07-02T15:54:46;10.33;;;3.40;;
11006;SDS011;8186;57.652;11.968;2023-07-02T15:57:13;8.03;;;3.30;;
11006;SDS011;8186;57.652;11.968;2023-07-02T15:59:41;8.20;;;2.73;;
11006;SDS011;8186;57.652;11.968;2023-07-02T16:02:08;6.27;;;2.70;;
11006;SDS011;8186;57.652;11.968;2023-07-02T16:04:35;5.03;;;2.33;;
11006;SDS011;8186;57.652;11.968;2023-07-02T16:07:06;8.60;;;2.50;;
11006;SDS011;8186;57.652;11.968;2023-07-02T16:09:34;9.23;;;2.83;;
11006;SDS011;8186;57.652;11.968;2023-07-02T16:12:01;8.40;;;2.80;;
11006;SDS011;8186;57.652;11.968;2023-07-02T16:14:28;10.07;;;2.30;;
11006;SDS011;8186;57.652;11.968;2023-07-02T16:16:56;10.43;;;2.30;;
11006;SDS011;8186;57.652;11.968;2023-07-02T16:19:23;6.03;;;2.13;;
11006;SDS011;8186;57.652;11.968;2023-07-02T16:21:50;6.30;;;2.30;;
11006;SDS011;8186;57.652;11.968;2023-07-02T16:24:19;10.73;;;2.80;;
11006;SDS011;8186;57.652;11.968;2023-07-02T16:26:49;7.67;;;2.93;;
11006;SDS011;8186;57.652;11.968;2023-07-02T16:29:16;10.23;;;2.90;;
11006;SDS011;8186;57.652;11.968;2023-07-02T16:31:44;9.90;;;2.97;;
11006;SDS011;8186;57.652;11.968;2023-07-02T16:34:12;10.60;;;2.93;;
11006;SDS011;8186;57.652;11.968;2023-07-02T16:36:41;8.23;;;2.63;;
11006;SDS011;8186;57.652;11.968;2023-07-02T16:39:08;6.03;;;2.33;;
11006;SDS011;8186;57.652;11.968;2023-07-02T16:41:36;9.73;;;2.90;;
11006;SDS011;8186;57.652;11.968;2023-07-02T16:44:11;9.00;;;2.53;;
11006;SDS011;8186;57.652;11.968;2023-07-02T16:46:38;6.10;;;2.33;;
11006;SDS011;8186;57.652;11.968;2023-07-02T16:49:06;5.83;;;2.07;;
11006;SDS011;8186;57.652;11.968;2023-07-02T16:51:35;7.20;;;2.80;;
11006;SDS011;8186;57.652;11.968;2023-07-02T16:54:05;6.93;;;2.43;;
11006;SDS011;8186;57.652;11.968;2023-07-02T16:56:34;8.23;;;2.33;;
11006;SDS011;8186;57.652;11.968;2023-07-02T16:59:01;8.30;;;2.83;;
11006;SDS011;8186;57.652;11.968;2023-07-02T17:01:29;12.73;;;3.27;;
11006;SDS011;8186;57.652;11.968;2023-07-02T17:03:56;6.93;;;2.77;;
11006;SDS011;8186;57.652;11.968;2023-07-02T17:06:22;8.23;;;2.70;;
11006;SDS011;8186;57.652;11.968;2023-07-02T17:09:14;11.73;;;3.13;;
11006;SDS011;8186;57.652;11.968;2023-07-02T17:11:46;10.07;;;2.83;;
11006;SDS011;8186;57.652;11.968;2023-07-02T17:14:16;11.83;;;2.90;;
11006;SDS011;8186;57.652;11.968;2023-07-02T17:16:47;5.53;;;2.40;;
11006;SDS011;8186;57.652;11.968;2023-07-02T17:19:17;5.30;;;2.20;;
11006;SDS011;8186;57.652;11.968;2023-07-02T17:21:46;8.30;;;3.22;;
11006;SDS011;8186;57.652;11.968;2023-07-02T17:24:19;10.53;;;2.93;;
11006;SDS011;8186;57.652;11.968;2023-07-02T17:26:47;10.23;;;2.70;;
11006;SDS011;8186;57.652;11.968;2023-07-02T17:29:16;6.60;;;2.63;;
11006;SDS011;8186;57.652;11.968;2023-07-02T17:31:44;7.50;;;2.80;;
11006;SDS011;8186;57.652;11.968;2023-07-02T17:34:16;6.40;;;2.40;;
11006;SDS011;8186;57.652;11.968;2023-07-02T17:36:46;8.50;;;3.20;;
11006;SDS011;8186;57.652;11.968;2023-07-02T17:39:15;6.07;;;2.43;;
11006;SDS011;8186;57.652;11.968;2023-07-02T17:41:44;10.07;;;3.70;;
11006;SDS011;8186;57.652;11.968;2023-07-02T17:44:11;6.77;;;2.90;;
11006;SDS011;8186;57.652;11.968;2023-07-02T17:46:39;7.17;;;3.10;;
11006;SDS011;8186;57.652;11.968;2023-07-02T17:49:07;8.77;;;2.57;;
11006;SDS011;8186;57.652;11.968;2023-07-02T17:51:34;10.07;;;2.97;;
11006;SDS011;8186;57.652;11.968;2023-07-02T17:54:01;9.93;;;2.93;;
11006;SDS011;8186;57.652;11.968;2023-07-02T17:56:28;10.43;;;3.03;;
11006;SDS011;8186;57.652;11.968;2023-07-02T17:58:57;14.13;;;3.43;;
11006;SDS011;8186;57.652;11.968;2023-07-02T18:01:24;13.20;;;2.97;;
11006;SDS011;8186;57.652;11.968;2023-07-02T18:03:51;9.97;;;3.10;;
11006;SDS011;8186;57.652;11.968;2023-07-02T18:06:18;9.33;;;3.20;;
11006;SDS011;8186;57.652;11.968;2023-07-02T18:08:45;8.10;;;3.00;;
11006;SDS011;8186;57.652;11.968;2023-07-02T18:11:12;13.00;;;3.43;;
11006;SDS011;8186;57.652;11.968;2023-07-02T18:13:39;10.13;;;3.43;;
11006;SDS011;8186;57.652;11.968;2023-07-02T18:16:08;10.83;;;3.57;;
11006;SDS011;8186;57.652;11.968;2023-07-02T18:18:34;16.03;;;3.47;;
11006;SDS011;8186;57.652;11.968;2023-07-02T18:21:02;8.93;;;3.07;;
11006;SDS011;8186;57.652;11.968;2023-07-02T18:23:29;10.17;;;3.97;;
11006;SDS011;8186;57.652;11.968;2023-07-02T18:25:56;10.47;;;3.17;;
11006;SDS011;8186;57.652;11.968;2023-07-02T18:28:25;12.50;;;4.00;;
11006;SDS011;8186;57.652;11.968;2023-07-02T18:30:52;13.97;;;4.17;;
11006;SDS011;8186;57.652;11.968;2023-07-02T18:33:22;10.53;;;3.77;;
11006;SDS011;8186;57.652;11.968;2023-07-02T18:35:49;11.03;;;4.07;;
11006;SDS011;8186;57.652;11.968;2023-07-02T18:38:16;13.30;;;4.37;;
11006;SDS011;8186;57.652;11.968;2023-07-02T18:40:44;11.97;;;3.80;;
11006;SDS011;8186;57.652;11.968;2023-07-02T18:43:11;13.97;;;4.13;;
11006;SDS011;8186;57.652;11.968;2023-07-02T18:45:39;12.47;;;4.23;;
11006;SDS011;8186;57.652;11.968;2023-07-02T18:48:06;14.77;;;3.80;;
11006;SDS011;8186;57.652;11.968;2023-07-02T18:50:35;13.63;;;4.00;;
11006;SDS011;8186;57.652;11.968;2023-07-02T18:53:03;13.87;;;4.07;;
11006;SDS011;8186;57.652;11.968;2023-07-02T18:55:30;14.97;;;4.90;;
11006;SDS011;8186;57.652;11.968;2023-07-02T18:57:56;13.90;;;4.73;;
11006;SDS011;8186;57.652;11.968;2023-07-02T19:00:23;15.80;;;3.90;;
11006;SDS011;8186;57.652;11.968;2023-07-02T19:02:50;8.10;;;4.30;;
11006;SDS011;8186;57.652;11.968;2023-07-02T19:05:18;10.57;;;3.70;;
11006;SDS011;8186;57.652;11.968;2023-07-02T19:07:46;13.23;;;3.80;;
11006;SDS011;8186;57.652;11.968;2023-07-02T19:10:13;8.47;;;3.30;;
11006;SDS011;8186;57.652;11.968;2023-07-02T19:12:41;14.20;;;3.90;;
11006;SDS011;8186;57.652;11.968;2023-07-02T19:15:08;11.60;;;3.17;;
11006;SDS011;8186;57.652;11.968;2023-07-02T19:17:36;8.90;;;3.30;;
11006;SDS011;8186;57.652;11.968;2023-07-02T19:20:04;7.07;;;3.03;;
11006;SDS011;8186;57.652;11.968;2023-07-02T19:22:32;9.80;;;3.00;;
11006;SDS011;8186;57.652;11.968;2023-07-02T19:25:00;8.13;;;3.10;;
11006;SDS011;8186;57.652;11.968;2023-07-02T19:27:27;11.33;;;3.83;;
11006;SDS011;8186;57.652;11.968;2023-07-02T19:29:54;8.47;;;3.57;;
11006;SDS011;8186;57.652;11.968;2023-07-02T19:32:25;13.17;;;3.50;;
11006;SDS011;8186;57.652;11.968;2023-07-02T19:34:57;6.50;;;3.30;;
11006;SDS011;8186;57.652;11.968;2023-07-02T19:37:24;10.50;;;3.13;;
11006;SDS011;8186;57.652;11.968;2023-07-02T19:39:51;8.77;;;3.37;;
11006;SDS011;8186;57.652;11.968;2023-07-02T19:42:19;13.53;;;3.90;;
11006;SDS011;8186;57.652;11.968;2023-07-02T19:44:46;10.73;;;4.30;;
11006;SDS011;8186;57.652;11.968;2023-07-02T19:47:13;15.60;;;4.27;;
11006;SDS011;8186;57.652;11.968;2023-07-02T19:49:43;11.17;;;3.40;;
11006;SDS011;8186;57.652;11.968;2023-07-02T19:52:13;12.80;;;3.60;;
11006;SDS011;8186;57.652;11.968;2023-07-02T19:54:40;13.03;;;4.07;;
11006;SDS011;8186;57.652;11.968;2023-07-02T19:57:10;12.23;;;3.97;;
11006;SDS011;8186;57.652;11.968;2023-07-02T19:59:42;22.00;;;5.00;;
11006;SDS011;8186;57.652;11.968;2023-07-02T20:02:10;13.80;;;4.13;;
11006;SDS011;8186;57.652;11.968;2023-07-02T20:04:38;13.23;;;3.40;;
11006;SDS011;8186;57.652;11.968;2023-07-02T20:07:06;9.73;;;3.67;;
11006;SDS011;8186;57.652;11.968;2023-07-02T20:09:33;14.77;;;4.27;;
11006;SDS011;8186;57.652;11.968;2023-07-02T20:12:02;13.83;;;4.10;;
11006;SDS011;8186;57.652;11.968;2023-07-02T20:14:29;12.93;;;3.53;;
11006;SDS011;8186;57.652;11.968;2023-07-02T20:16:58;12.87;;;3.83;;
11006;SDS011;8186;57.652;11.968;2023-07-02T20:19:25;11.20;;;3.60;;
11006;SDS011;8186;57.652;11.968;2023-07-02T20:21:52;11.57;;;3.70;;
11006;SDS011;8186;57.652;11.968;2023-07-02T20:24:20;15.87;;;4.83;;
11006;SDS011;8186;57.652;11.968;2023-07-02T20:26:49;13.67;;;4.47;;
11006;SDS011;8186;57.652;11.968;2023-07-02T20:29:16;11.90;;;3.97;;
11006;SDS011;8186;57.652;11.968;2023-07-02T20:31:43;11.00;;;3.93;;
11006;SDS011;8186;57.652;11.968;2023-07-02T20:34:11;16.20;;;4.50;;
11006;SDS011;8186;57.652;11.968;2023-07-02T20:36:40;18.27;;;5.33;;
11006;SDS011;8186;57.652;11.968;2023-07-02T20:39:08;17.30;;;4.50;;
11006;SDS011;8186;57.652;11.968;2023-07-02T20:41:34;18.03;;;5.17;;
11006;SDS011;8186;57.652;11.968;2023-07-02T20:44:02;12.03;;;4.80;;
11006;SDS011;8186;57.652;11.968;2023-07-02T20:46:29;11.03;;;4.60;;
11006;SDS011;8186;57.652;11.968;2023-07-02T20:48:57;14.13;;;5.50;;
11006;SDS011;8186;57.652;11.968;2023-07-02T20:51:26;13.80;;;5.03;;
11006;SDS011;8186;57.652;11.968;2023-07-02T20:53:53;17.47;;;5.80;;
11006;SDS011;8186;57.652;11.968;2023-07-02T20:56:20;16.70;;;5.43;;
11006;SDS011;8186;57.652;11.968;2023-07-02T20:58:47;18.73;;;5.40;;
11006;SDS011;8186;57.652;11.968;2023-07-02T21:01:14;17.57;;;4.40;;
11006;SDS011;8186;57.652;11.968;2023-07-02T21:03:40;11.60;;;3.97;;
11006;SDS011;8186;57.652;11.968;2023-07-02T21:06:08;12.70;;;4.73;;
11006;SDS011;8186;57.652;11.968;2023-07-02T21:08:37;12.60;;;4.70;;
11006;SDS011;8186;57.652;11.968;2023-07-02T21:11:04;14.00;;;4.60;;
11006;SDS011;8186;57.652;11.968;2023-07-02T21:13:32;15.67;;;4.77;;
11006;SDS011;8186;57.652;11.968;2023-07-02T21:15:59;14.73;;;4.17;;
11006;SDS011;8186;57.652;11.968;2023-07-02T21:18:27;16.60;;;4.93;;
11006;SDS011;8186;57.652;11.968;2023-07-02T21:20:54;14.67;;;4.67;;
11006;SDS011;8186;57.652;11.968;2023-07-02T21:23:21;16.27;;;4.50;;
11006;SDS011;8186;57.652;11.968;2023-07-02T21:25:56;14.27;;;4.67;;
11006;SDS011;8186;57.652;11.968;2023-07-02T21:28:24;19.23;;;4.93;;
11006;SDS011;8186;57.652;11.968;2023-07-02T21:30:51;18.40;;;5.40;;
11006;SDS011;8186;57.652;11.968;2023-07-02T21:33:18;16.70;;;4.20;;
11006;SDS011;8186;57.652;11.968;2023-07-02T21:35:45;16.40;;;4.70;;
11006;SDS011;8186;57.652;11.968;2023-07-02T21:38:12;12.77;;;4.10;;
11006;SDS011;8186;57.652;11.968;2023-07-02T21:40:39;18.20;;;4.97;;
11006;SDS011;8186;57.652;11.968;2023-07-02T21:43:08;18.23;;;4.87;;
11006;SDS011;8186;57.652;11.968;2023-07-02T21:45:35;17.17;;;4.87;;
11006;SDS011;8186;57.652;11.968;2023-07-02T21:48:02;16.43;;;4.83;;
11006;SDS011;8186;57.652;11.968;2023-07-02T21:50:29;19.77;;;5.17;;
11006;SDS011;8186;57.652;11.968;2023-07-02T21:52:56;16.70;;;5.03;;
11006;SDS011;8186;57.652;11.968;2023-07-02T21:55:24;17.30;;;5.07;;
11006;SDS011;8186;57.652;11.968;2023-07-02T21:57:51;18.37;;;4.97;;
11006;SDS011;8186;57.652;11.968;2023-07-02T22:00:19;17.07;;;5.00;;
11006;SDS011;8186;57.652;11.968;2023-07-02T22:02:46;12.97;;;4.10;;
11006;SDS011;8186;57.652;11.968;2023-07-02T22:05:13;17.93;;;5.13;;
11006;SDS011;8186;57.652;11.968;2023-07-02T22:07:41;11.60;;;3.70;;
11006;SDS011;8186;57.652;11.968;2023-07-02T22:10:09;13.47;;;4.20;;
11006;SDS011;8186;57.652;11.968;2023-07-02T22:12:37;18.40;;;4.80;;
11006;SDS011;8186;57.652;11.968;2023-07-02T22:15:04;15.50;;;4.53;;
11006;SDS011;8186;57.652;11.968;2023-07-02T22:17:33;14.20;;;4.00;;
11006;SDS011;8186;57.652;11.968;2023-07-02T22:20:00;16.77;;;4.80;;
11006;SDS011;8186;57.652;11.968;2023-07-02T22:22:36;12.30;;;4.33;;
11006;SDS011;8186;57.652;11.968;2023-07-02T22:25:05;18.50;;;5.70;;
11006;SDS011;8186;57.652;11.968;2023-07-02T22:27:33;13.03;;;4.47;;
11006;SDS011;8186;57.652;11.968;2023-07-02T22:30:00;17.47;;;4.77;;
11006;SDS011;8186;57.652;11.968;2023-07-02T22:32:29;15.80;;;4.83;;
11006;SDS011;8186;57.652;11.968;2023-07-02T22:35:00;18.93;;;4.77;;
11006;SDS011;8186;57.652;11.968;2023-07-02T22:37:27;11.33;;;4.23;;
11006;SDS011;8186;57.652;11.968;2023-07-02T22:39:55;12.87;;;4.50;;
11006;SDS011;8186;57.652;11.968;2023-07-02T22:42:23;16.90;;;4.33;;
11006;SDS011;8186;57.652;11.968;2023-07-02T22:44:50;19.80;;;4.87;;
11006;SDS011;8186;57.652;11.968;2023-07-02T22:47:17;13.13;;;4.17;;
11006;SDS011;8186;57.652;11.968;2023-07-02T22:49:44;14.20;;;4.90;;
11006;SDS011;8186;57.652;11.968;2023-07-02T22:52:12;17.47;;;4.93;;
11006;SDS011;8186;57.652;11.968;2023-07-02T22:54:39;19.03;;;4.63;;
11006;SDS011;8186;57.652;11.968;2023-07-02T22:57:06;14.23;;;4.37;;
11006;SDS011;8186;57.652;11.968;2023-07-02T22:59:33;19.67;;;4.33;;
11006;SDS011;8186;57.652;11.968;2023-07-02T23:02:00;16.23;;;4.30;;
11006;SDS011;8186;57.652;11.968;2023-07-02T23:04:27;13.50;;;4.40;;
11006;SDS011;8186;57.652;11.968;2023-07-02T23:06:54;16.67;;;3.83;;
11006;SDS011;8186;57.652;11.968;2023-07-02T23:09:22;18.57;;;4.37;;
11006;SDS011;8186;57.652;11.968;2023-07-02T23:11:49;17.97;;;4.80;;
11006;SDS011;8186;57.652;11.968;2023-07-02T23:14:16;16.17;;;5.27;;
11006;SDS011;8186;57.652;11.968;2023-07-02T23:16:43;14.03;;;4.20;;
11006;SDS011;8186;57.652;11.968;2023-07-02T23:19:10;17.27;;;4.20;;
11006;SDS011;8186;57.652;11.968;2023-07-02T23:21:38;14.40;;;4.30;;
11006;SDS011;8186;57.652;11.968;2023-07-02T23:24:11;13.50;;;4.80;;
11006;SDS011;8186;57.652;11.968;2023-07-02T23:26:39;16.37;;;4.00;;
11006;SDS011;8186;57.652;11.968;2023-07-02T23:29:07;13.17;;;4.30;;
11006;SDS011;8186;57.652;11.968;2023-07-02T23:31:34;12.23;;;3.97;;
11006;SDS011;8186;57.652;11.968;2023-07-02T23:34:01;15.53;;;4.43;;
11006;SDS011;8186;57.652;11.968;2023-07-02T23:36:30;16.00;;;4.80;;
11006;SDS011;8186;57.652;11.968;2023-07-02T23:38:57;19.63;;;4.40;;
11006;SDS011;8186;57.652;11.968;2023-07-02T23:41:24;18.13;;;4.83;;
11006;SDS011;8186;57.652;11.968;2023-07-02T23:43:53;16.30;;;5.27;;
11006;SDS011;8186;57.652;11.968;2023-07-02T23:46:20;13.37;;;4.37;;
11006;SDS011;8186;57.652;11.968;2023-07-02T23:48:48;16.80;;;5.57;;
11006;SDS011;8186;57.652;11.968;2023-07-02T23:51:15;18.13;;;5.30;;
11006;SDS011;8186;57.652;11.968;2023-07-02T23:53:42;15.73;;;4.93;;
11006;SDS011;8186;57.652;11.968;2023-07-02T23:56:09;17.97;;;5.73;;
11006;SDS011;8186;57.652;11.968;2023-07-02T23:58:36;15.27;;;5.20;;
